sensor_id;sensor_type;location;lat;lon;timestamp;P1;durP1;ratioP1;P2;durP2;ratioP2
20318;SDS011;10317;47.254;11.314;2023-02-21T00:01:48;5.28;;;4.70;;
20318;SDS011;10317;47.254;11.314;2023-02-21T00:04:35;5.60;;;4.70;;
20318;SDS011;10317;47.254;11.314;2023-02-21T00:07:20;8.30;;;6.10;;
20318;SDS011;10317;47.254;11.314;2023-02-21T00:10:05;5.63;;;4.82;;
20318;SDS011;10317;47.254;11.314;2023-02-21T00:12:50;5.82;;;4.68;;
20318;SDS011;10317;47.254;11.314;2023-02-21T00:15:35;5.90;;;4.55;;
20318;SDS011;10317;47.254;11.314;2023-02-21T00:18:19;6.32;;;4.80;;
20318;SDS011;10317;47.254;11.314;2023-02-21T00:21:03;8.73;;;4.82;;
20318;SDS011;10317;47.254;11.314;2023-02-21T00:23:48;6.03;;;4.43;;
20318;SDS011;10317;47.254;11.314;2023-02-21T00:26:32;7.18;;;4.70;;
20318;SDS011;10317;47.254;11.314;2023-02-21T00:29:16;8.35;;;5.20;;
20318;SDS011;10317;47.254;11.314;2023-02-21T00:32:00;6.65;;;4.90;;
20318;SDS011;10317;47.254;11.314;2023-02-21T00:34:44;7.35;;;5.00;;
20318;SDS011;10317;47.254;11.314;2023-02-21T00:37:28;7.35;;;4.82;;
20318;SDS011;10317;47.254;11.314;2023-02-21T00:40:13;7.22;;;4.75;;
20318;SDS011;10317;47.254;11.314;2023-02-21T00:42:58;7.28;;;4.50;;
20318;SDS011;10317;47.254;11.314;2023-02-21T00:45:42;9.18;;;4.95;;
20318;SDS011;10317;47.254;11.314;2023-02-21T00:48:26;10.43;;;4.20;;
20318;SDS011;10317;47.254;11.314;2023-02-21T00:51:11;7.32;;;4.28;;
20318;SDS011;10317;47.254;11.314;2023-02-21T00:53:55;9.43;;;4.97;;
20318;SDS011;10317;47.254;11.314;2023-02-21T00:56:39;7.95;;;4.28;;
20318;SDS011;10317;47.254;11.314;2023-02-21T00:59:24;7.55;;;4.75;;
20318;SDS011;10317;47.254;11.314;2023-02-21T01:02:08;7.50;;;5.18;;
20318;SDS011;10317;47.254;11.314;2023-02-21T01:04:53;6.03;;;4.57;;
20318;SDS011;10317;47.254;11.314;2023-02-21T01:07:38;6.45;;;4.50;;
20318;SDS011;10317;47.254;11.314;2023-02-21T01:10:22;7.18;;;4.40;;
20318;SDS011;10317;47.254;11.314;2023-02-21T01:13:06;6.50;;;4.57;;
20318;SDS011;10317;47.254;11.314;2023-02-21T01:15:50;6.65;;;4.28;;
20318;SDS011;10317;47.254;11.314;2023-02-21T01:18:35;9.55;;;4.75;;
20318;SDS011;10317;47.254;11.314;2023-02-21T01:21:19;5.05;;;4.55;;
20318;SDS011;10317;47.254;11.314;2023-02-21T01:24:03;8.23;;;5.35;;
20318;SDS011;10317;47.254;11.314;2023-02-21T01:26:49;6.22;;;4.43;;
20318;SDS011;10317;47.254;11.314;2023-02-21T01:29:33;6.35;;;4.20;;
20318;SDS011;10317;47.254;11.314;2023-02-21T01:32:17;5.03;;;4.30;;
20318;SDS011;10317;47.254;11.314;2023-02-21T01:35:01;6.97;;;4.65;;
20318;SDS011;10317;47.254;11.314;2023-02-21T01:37:46;6.93;;;4.53;;
20318;SDS011;10317;47.254;11.314;2023-02-21T01:40:30;5.75;;;4.95;;
20318;SDS011;10317;47.254;11.314;2023-02-21T01:43:15;7.55;;;4.93;;
20318;SDS011;10317;47.254;11.314;2023-02-21T01:46:00;7.80;;;5.38;;
20318;SDS011;10317;47.254;11.314;2023-02-21T01:48:44;7.88;;;5.90;;
20318;SDS011;10317;47.254;11.314;2023-02-21T01:51:33;8.68;;;5.20;;
20318;SDS011;10317;47.254;11.314;2023-02-21T01:54:21;8.77;;;5.15;;
20318;SDS011;10317;47.254;11.314;2023-02-21T01:57:06;6.88;;;4.38;;
20318;SDS011;10317;47.254;11.314;2023-02-21T01:59:52;6.10;;;4.90;;
20318;SDS011;10317;47.254;11.314;2023-02-21T02:05:30;7.25;;;5.25;;
20318;SDS011;10317;47.254;11.314;2023-02-21T02:08:14;5.90;;;4.18;;
20318;SDS011;10317;47.254;11.314;2023-02-21T02:11:12;8.18;;;5.35;;
20318;SDS011;10317;47.254;11.314;2023-02-21T02:14:29;8.75;;;4.65;;
20318;SDS011;10317;47.254;11.314;2023-02-21T02:17:19;8.73;;;4.95;;
20318;SDS011;10317;47.254;11.314;2023-02-21T02:37:21;11.27;;;5.50;;
20318;SDS011;10317;47.254;11.314;2023-02-21T02:39:55;6.18;;;5.25;;
20318;SDS011;10317;47.254;11.314;2023-02-21T02:45:23;9.93;;;5.10;;
20318;SDS011;10317;47.254;11.314;2023-02-21T02:47:56;8.30;;;6.05;;
20318;SDS011;10317;47.254;11.314;2023-02-21T02:50:25;8.95;;;5.72;;
20318;SDS011;10317;47.254;11.314;2023-02-21T02:52:53;7.32;;;5.60;;
20318;SDS011;10317;47.254;11.314;2023-02-21T02:58:08;8.68;;;5.20;;
20318;SDS011;10317;47.254;11.314;2023-02-21T03:00:36;7.38;;;5.47;;
20318;SDS011;10317;47.254;11.314;2023-02-21T03:09:13;8.18;;;5.70;;
20318;SDS011;10317;47.254;11.314;2023-02-21T03:12:15;8.18;;;5.50;;
20318;SDS011;10317;47.254;11.314;2023-02-21T03:17:38;8.63;;;5.43;;
20318;SDS011;10317;47.254;11.314;2023-02-21T03:20:11;7.30;;;5.53;;
20318;SDS011;10317;47.254;11.314;2023-02-21T03:22:39;9.00;;;5.20;;
20318;SDS011;10317;47.254;11.314;2023-02-21T03:25:06;8.25;;;5.45;;
20318;SDS011;10317;47.254;11.314;2023-02-21T03:27:33;6.38;;;5.25;;
20318;SDS011;10317;47.254;11.314;2023-02-21T03:30:02;9.85;;;4.72;;
20318;SDS011;10317;47.254;11.314;2023-02-21T03:32:31;6.38;;;5.32;;
20318;SDS011;10317;47.254;11.314;2023-02-21T03:35:00;7.38;;;5.15;;
20318;SDS011;10317;47.254;11.314;2023-02-21T03:37:31;10.85;;;5.45;;
20318;SDS011;10317;47.254;11.314;2023-02-21T03:40:03;16.70;;;6.88;;
20318;SDS011;10317;47.254;11.314;2023-02-21T03:42:31;7.50;;;5.15;;
20318;SDS011;10317;47.254;11.314;2023-02-21T03:44:57;8.65;;;5.30;;
20318;SDS011;10317;47.254;11.314;2023-02-21T03:47:23;7.32;;;5.07;;
20318;SDS011;10317;47.254;11.314;2023-02-21T03:49:48;7.75;;;5.75;;
20318;SDS011;10317;47.254;11.314;2023-02-21T03:52:14;7.50;;;5.68;;
20318;SDS011;10317;47.254;11.314;2023-02-21T03:54:40;9.30;;;5.45;;
20318;SDS011;10317;47.254;11.314;2023-02-21T03:57:06;10.50;;;6.10;;
20318;SDS011;10317;47.254;11.314;2023-02-21T03:59:31;9.20;;;6.00;;
20318;SDS011;10317;47.254;11.314;2023-02-21T04:01:57;9.40;;;5.85;;
20318;SDS011;10317;47.254;11.314;2023-02-21T04:04:23;8.68;;;5.55;;
20318;SDS011;10317;47.254;11.314;2023-02-21T04:06:49;7.80;;;6.07;;
20318;SDS011;10317;47.254;11.314;2023-02-21T04:09:14;7.70;;;5.32;;
20318;SDS011;10317;47.254;11.314;2023-02-21T04:11:44;11.88;;;5.05;;
20318;SDS011;10317;47.254;11.314;2023-02-21T04:14:10;10.05;;;5.88;;
20318;SDS011;10317;47.254;11.314;2023-02-21T04:16:36;6.03;;;4.70;;
20318;SDS011;10317;47.254;11.314;2023-02-21T04:19:02;6.10;;;4.82;;
20318;SDS011;10317;47.254;11.314;2023-02-21T04:21:28;7.53;;;4.88;;
20318;SDS011;10317;47.254;11.314;2023-02-21T04:23:54;6.00;;;5.07;;
20318;SDS011;10317;47.254;11.314;2023-02-21T04:26:19;14.27;;;5.30;;
20318;SDS011;10317;47.254;11.314;2023-02-21T04:28:47;6.25;;;4.85;;
20318;SDS011;10317;47.254;11.314;2023-02-21T04:31:13;7.88;;;4.60;;
20318;SDS011;10317;47.254;11.314;2023-02-21T04:33:40;8.02;;;5.05;;
20318;SDS011;10317;47.254;11.314;2023-02-21T04:36:06;9.10;;;4.60;;
20318;SDS011;10317;47.254;11.314;2023-02-21T04:38:32;5.80;;;5.15;;
20318;SDS011;10317;47.254;11.314;2023-02-21T04:40:58;7.78;;;4.43;;
20318;SDS011;10317;47.254;11.314;2023-02-21T04:43:23;6.45;;;4.70;;
20318;SDS011;10317;47.254;11.314;2023-02-21T04:45:49;6.25;;;4.35;;
20318;SDS011;10317;47.254;11.314;2023-02-21T04:48:15;8.20;;;4.78;;
20318;SDS011;10317;47.254;11.314;2023-02-21T04:50:41;10.32;;;5.05;;
20318;SDS011;10317;47.254;11.314;2023-02-21T04:53:06;6.95;;;4.68;;
20318;SDS011;10317;47.254;11.314;2023-02-21T04:55:32;7.97;;;6.28;;
20318;SDS011;10317;47.254;11.314;2023-02-21T04:57:58;5.70;;;5.10;;
20318;SDS011;10317;47.254;11.314;2023-02-21T05:00:24;6.13;;;4.72;;
20318;SDS011;10317;47.254;11.314;2023-02-21T05:02:50;5.50;;;4.82;;
20318;SDS011;10317;47.254;11.314;2023-02-21T05:05:15;5.03;;;4.30;;
20318;SDS011;10317;47.254;11.314;2023-02-21T05:07:41;6.90;;;4.40;;
20318;SDS011;10317;47.254;11.314;2023-02-21T05:10:07;5.93;;;4.35;;
20318;SDS011;10317;47.254;11.314;2023-02-21T05:12:34;5.07;;;4.05;;
20318;SDS011;10317;47.254;11.314;2023-02-21T05:15:01;17.02;;;9.48;;
20318;SDS011;10317;47.254;11.314;2023-02-21T05:17:27;17.58;;;8.52;;
20318;SDS011;10317;47.254;11.314;2023-02-21T05:19:53;12.15;;;7.13;;
20318;SDS011;10317;47.254;11.314;2023-02-21T05:22:19;9.25;;;6.25;;
20318;SDS011;10317;47.254;11.314;2023-02-21T05:24:45;11.95;;;7.60;;
20318;SDS011;10317;47.254;11.314;2023-02-21T05:27:13;18.30;;;9.38;;
20318;SDS011;10317;47.254;11.314;2023-02-21T05:29:47;16.25;;;9.57;;
20318;SDS011;10317;47.254;11.314;2023-02-21T05:32:18;16.00;;;9.43;;
20318;SDS011;10317;47.254;11.314;2023-02-21T05:34:44;10.13;;;6.07;;
20318;SDS011;10317;47.254;11.314;2023-02-21T05:37:17;8.27;;;5.78;;
20318;SDS011;10317;47.254;11.314;2023-02-21T05:39:45;6.90;;;5.15;;
20318;SDS011;10317;47.254;11.314;2023-02-21T05:42:11;14.63;;;6.93;;
20318;SDS011;10317;47.254;11.314;2023-02-21T05:44:37;8.65;;;5.47;;
20318;SDS011;10317;47.254;11.314;2023-02-21T05:47:03;9.27;;;5.88;;
20318;SDS011;10317;47.254;11.314;2023-02-21T05:49:31;18.55;;;6.72;;
20318;SDS011;10317;47.254;11.314;2023-02-21T05:51:57;13.88;;;7.25;;
20318;SDS011;10317;47.254;11.314;2023-02-21T05:54:23;9.52;;;6.47;;
20318;SDS011;10317;47.254;11.314;2023-02-21T05:56:49;11.85;;;6.63;;
20318;SDS011;10317;47.254;11.314;2023-02-21T05:59:16;9.30;;;6.10;;
20318;SDS011;10317;47.254;11.314;2023-02-21T06:01:43;9.10;;;6.15;;
20318;SDS011;10317;47.254;11.314;2023-02-21T06:04:10;10.88;;;6.55;;
20318;SDS011;10317;47.254;11.314;2023-02-21T06:06:36;12.32;;;6.88;;
20318;SDS011;10317;47.254;11.314;2023-02-21T06:09:02;10.70;;;6.65;;
20318;SDS011;10317;47.254;11.314;2023-02-21T06:11:30;9.93;;;6.20;;
20318;SDS011;10317;47.254;11.314;2023-02-21T06:14:02;8.93;;;5.75;;
20318;SDS011;10317;47.254;11.314;2023-02-21T06:16:31;7.50;;;4.97;;
20318;SDS011;10317;47.254;11.314;2023-02-21T06:19:01;9.55;;;5.68;;
20318;SDS011;10317;47.254;11.314;2023-02-21T06:21:27;10.13;;;5.57;;
20318;SDS011;10317;47.254;11.314;2023-02-21T06:23:53;6.40;;;5.45;;
20318;SDS011;10317;47.254;11.314;2023-02-21T06:26:19;9.43;;;6.40;;
20318;SDS011;10317;47.254;11.314;2023-02-21T06:28:45;8.75;;;5.72;;
20318;SDS011;10317;47.254;11.314;2023-02-21T06:31:11;10.27;;;6.50;;
20318;SDS011;10317;47.254;11.314;2023-02-21T06:33:36;10.90;;;6.32;;
20318;SDS011;10317;47.254;11.314;2023-02-21T06:36:03;8.43;;;5.45;;
20318;SDS011;10317;47.254;11.314;2023-02-21T06:38:30;10.55;;;6.53;;
20318;SDS011;10317;47.254;11.314;2023-02-21T06:40:55;10.13;;;5.72;;
20318;SDS011;10317;47.254;11.314;2023-02-21T06:43:21;8.90;;;5.45;;
20318;SDS011;10317;47.254;11.314;2023-02-21T06:45:46;9.15;;;5.32;;
20318;SDS011;10317;47.254;11.314;2023-02-21T06:48:13;6.72;;;5.40;;
20318;SDS011;10317;47.254;11.314;2023-02-21T06:50:40;6.07;;;4.97;;
20318;SDS011;10317;47.254;11.314;2023-02-21T06:53:05;7.57;;;5.18;;
20318;SDS011;10317;47.254;11.314;2023-02-21T06:55:31;5.72;;;4.95;;
20318;SDS011;10317;47.254;11.314;2023-02-21T06:57:57;5.45;;;4.78;;
20318;SDS011;10317;47.254;11.314;2023-02-21T07:00:23;8.02;;;5.50;;
20318;SDS011;10317;47.254;11.314;2023-02-21T07:02:50;9.27;;;5.13;;
20318;SDS011;10317;47.254;11.314;2023-02-21T07:05:17;5.45;;;4.95;;
20318;SDS011;10317;47.254;11.314;2023-02-21T07:07:43;14.23;;;5.47;;
20318;SDS011;10317;47.254;11.314;2023-02-21T07:10:09;10.35;;;5.97;;
20318;SDS011;10317;47.254;11.314;2023-02-21T07:12:35;6.95;;;5.07;;
20318;SDS011;10317;47.254;11.314;2023-02-21T07:15:01;7.57;;;4.60;;
20318;SDS011;10317;47.254;11.314;2023-02-21T07:17:27;7.90;;;4.80;;
20318;SDS011;10317;47.254;11.314;2023-02-21T07:19:52;7.65;;;4.85;;
20318;SDS011;10317;47.254;11.314;2023-02-21T07:22:18;8.57;;;5.13;;
20318;SDS011;10317;47.254;11.314;2023-02-21T07:24:50;8.93;;;4.95;;
20318;SDS011;10317;47.254;11.314;2023-02-21T07:27:18;7.95;;;4.70;;
20318;SDS011;10317;47.254;11.314;2023-02-21T07:29:49;5.65;;;4.63;;
20318;SDS011;10317;47.254;11.314;2023-02-21T07:32:15;6.93;;;4.85;;
20318;SDS011;10317;47.254;11.314;2023-02-21T07:34:41;5.70;;;4.50;;
20318;SDS011;10317;47.254;11.314;2023-02-21T07:37:08;7.05;;;4.68;;
20318;SDS011;10317;47.254;11.314;2023-02-21T07:39:34;8.05;;;4.68;;
20318;SDS011;10317;47.254;11.314;2023-02-21T07:42:00;9.05;;;5.97;;
20318;SDS011;10317;47.254;11.314;2023-02-21T07:44:26;7.32;;;6.10;;
20318;SDS011;10317;47.254;11.314;2023-02-21T07:46:53;7.47;;;5.95;;
20318;SDS011;10317;47.254;11.314;2023-02-21T07:49:20;10.43;;;6.10;;
20318;SDS011;10317;47.254;11.314;2023-02-21T07:51:46;6.55;;;5.25;;
20318;SDS011;10317;47.254;11.314;2023-02-21T07:54:12;6.93;;;5.45;;
20318;SDS011;10317;47.254;11.314;2023-02-21T07:56:46;11.30;;;5.40;;
20318;SDS011;10317;47.254;11.314;2023-02-21T07:59:13;8.68;;;5.13;;
20318;SDS011;10317;47.254;11.314;2023-02-21T08:01:39;7.10;;;5.32;;
20318;SDS011;10317;47.254;11.314;2023-02-21T08:04:05;9.35;;;5.40;;
20318;SDS011;10317;47.254;11.314;2023-02-21T08:06:34;8.23;;;3.88;;
20318;SDS011;10317;47.254;11.314;2023-02-21T08:09:00;5.90;;;4.00;;
20318;SDS011;10317;47.254;11.314;2023-02-21T08:11:27;6.28;;;5.47;;
20318;SDS011;10317;47.254;11.314;2023-02-21T08:13:52;12.80;;;4.88;;
20318;SDS011;10317;47.254;11.314;2023-02-21T08:16:18;11.43;;;4.53;;
20318;SDS011;10317;47.254;11.314;2023-02-21T08:18:46;6.07;;;4.38;;
20318;SDS011;10317;47.254;11.314;2023-02-21T08:21:12;7.00;;;5.20;;
20318;SDS011;10317;47.254;11.314;2023-02-21T08:23:38;8.43;;;4.88;;
20318;SDS011;10317;47.254;11.314;2023-02-21T08:26:04;9.50;;;4.60;;
20318;SDS011;10317;47.254;11.314;2023-02-21T08:28:33;8.43;;;4.97;;
20318;SDS011;10317;47.254;11.314;2023-02-21T08:31:01;8.50;;;4.82;;
20318;SDS011;10317;47.254;11.314;2023-02-21T08:33:27;5.95;;;4.10;;
20318;SDS011;10317;47.254;11.314;2023-02-21T08:35:53;5.32;;;4.30;;
20318;SDS011;10317;47.254;11.314;2023-02-21T08:38:19;7.72;;;4.57;;
20318;SDS011;10317;47.254;11.314;2023-02-21T08:40:48;6.85;;;4.57;;
20318;SDS011;10317;47.254;11.314;2023-02-21T08:43:16;7.88;;;4.20;;
20318;SDS011;10317;47.254;11.314;2023-02-21T08:45:42;5.70;;;3.63;;
20318;SDS011;10317;47.254;11.314;2023-02-21T08:48:08;6.68;;;3.42;;
20318;SDS011;10317;47.254;11.314;2023-02-21T08:50:37;5.38;;;4.63;;
20318;SDS011;10317;47.254;11.314;2023-02-21T08:53:02;6.13;;;3.58;;
20318;SDS011;10317;47.254;11.314;2023-02-21T08:55:28;5.32;;;3.58;;
20318;SDS011;10317;47.254;11.314;2023-02-21T08:57:54;7.85;;;4.10;;
20318;SDS011;10317;47.254;11.314;2023-02-21T09:00:20;4.25;;;3.75;;
20318;SDS011;10317;47.254;11.314;2023-02-21T09:02:50;6.03;;;2.88;;
20318;SDS011;10317;47.254;11.314;2023-02-21T09:05:24;5.25;;;3.10;;
20318;SDS011;10317;47.254;11.314;2023-02-21T09:07:53;5.00;;;3.03;;
20318;SDS011;10317;47.254;11.314;2023-02-21T09:10:24;4.18;;;2.80;;
20318;SDS011;10317;47.254;11.314;2023-02-21T09:12:51;8.43;;;3.88;;
20318;SDS011;10317;47.254;11.314;2023-02-21T09:15:17;3.75;;;3.10;;
20318;SDS011;10317;47.254;11.314;2023-02-21T09:17:43;5.30;;;2.90;;
20318;SDS011;10317;47.254;11.314;2023-02-21T09:20:09;9.05;;;2.80;;
20318;SDS011;10317;47.254;11.314;2023-02-21T09:22:37;3.03;;;2.60;;
20318;SDS011;10317;47.254;11.314;2023-02-21T09:25:06;3.22;;;2.85;;
20318;SDS011;10317;47.254;11.314;2023-02-21T09:27:36;2.95;;;2.55;;
20318;SDS011;10317;47.254;11.314;2023-02-21T09:30:15;6.38;;;3.13;;
20318;SDS011;10317;47.254;11.314;2023-02-21T09:32:43;3.75;;;2.60;;
20318;SDS011;10317;47.254;11.314;2023-02-21T09:35:12;3.85;;;2.42;;
20318;SDS011;10317;47.254;11.314;2023-02-21T09:37:38;2.30;;;2.20;;
20318;SDS011;10317;47.254;11.314;2023-02-21T09:40:25;4.03;;;2.55;;
20318;SDS011;10317;47.254;11.314;2023-02-21T09:43:20;2.05;;;1.95;;
20318;SDS011;10317;47.254;11.314;2023-02-21T09:45:51;2.28;;;2.08;;
20318;SDS011;10317;47.254;11.314;2023-02-21T09:48:22;2.33;;;1.98;;
20318;SDS011;10317;47.254;11.314;2023-02-21T09:50:53;3.15;;;2.10;;
20318;SDS011;10317;47.254;11.314;2023-02-21T09:53:25;3.35;;;1.95;;
20318;SDS011;10317;47.254;11.314;2023-02-21T09:55:54;2.55;;;2.13;;
20318;SDS011;10317;47.254;11.314;2023-02-21T09:58:26;4.05;;;2.15;;
20318;SDS011;10317;47.254;11.314;2023-02-21T10:01:05;2.28;;;1.77;;
20318;SDS011;10317;47.254;11.314;2023-02-21T10:04:05;3.83;;;1.77;;
20318;SDS011;10317;47.254;11.314;2023-02-21T10:06:43;1.98;;;1.88;;
20318;SDS011;10317;47.254;11.314;2023-02-21T10:13:04;5.35;;;2.03;;
20318;SDS011;10317;47.254;11.314;2023-02-21T10:21:48;5.18;;;2.17;;
20318;SDS011;10317;47.254;11.314;2023-02-21T10:24:20;3.85;;;2.03;;
20318;SDS011;10317;47.254;11.314;2023-02-21T10:27:06;3.22;;;2.03;;
20318;SDS011;10317;47.254;11.314;2023-02-21T10:33:20;1.70;;;1.60;;
20318;SDS011;10317;47.254;11.314;2023-02-21T10:48:26;1.67;;;1.40;;
20318;SDS011;10317;47.254;11.314;2023-02-21T10:53:32;2.58;;;1.42;;
20318;SDS011;10317;47.254;11.314;2023-02-21T10:58:32;3.97;;;1.90;;
20318;SDS011;10317;47.254;11.314;2023-02-21T11:02:01;1.92;;;1.60;;
20318;SDS011;10317;47.254;11.314;2023-02-21T11:06:47;1.85;;;1.75;;
20318;SDS011;10317;47.254;11.314;2023-02-21T11:20:03;5.13;;;2.00;;
20318;SDS011;10317;47.254;11.314;2023-02-21T11:22:39;1.90;;;1.75;;
20318;SDS011;10317;47.254;11.314;2023-02-21T11:25:20;3.50;;;1.67;;
20318;SDS011;10317;47.254;11.314;2023-02-21T11:30:27;3.33;;;2.17;;
20318;SDS011;10317;47.254;11.314;2023-02-21T11:32:57;2.42;;;1.58;;
20318;SDS011;10317;47.254;11.314;2023-02-21T11:35:29;6.18;;;1.83;;
20318;SDS011;10317;47.254;11.314;2023-02-21T11:37:59;2.80;;;2.60;;
20318;SDS011;10317;47.254;11.314;2023-02-21T11:40:33;2.78;;;1.70;;
20318;SDS011;10317;47.254;11.314;2023-02-21T11:51:31;3.30;;;1.50;;
20318;SDS011;10317;47.254;11.314;2023-02-21T11:54:04;2.55;;;1.63;;
20318;SDS011;10317;47.254;11.314;2023-02-21T12:01:28;3.05;;;2.08;;
20318;SDS011;10317;47.254;11.314;2023-02-21T12:17:11;5.78;;;2.38;;
20318;SDS011;10317;47.254;11.314;2023-02-21T12:22:26;6.00;;;2.55;;
20318;SDS011;10317;47.254;11.314;2023-02-21T12:28:04;3.92;;;2.55;;
20318;SDS011;10317;47.254;11.314;2023-02-21T12:44:53;3.15;;;1.77;;
20318;SDS011;10317;47.254;11.314;2023-02-21T12:53:05;3.00;;;1.42;;
20318;SDS011;10317;47.254;11.314;2023-02-21T12:55:39;1.45;;;1.23;;
20318;SDS011;10317;47.254;11.314;2023-02-21T13:01:27;3.15;;;1.38;;
20318;SDS011;10317;47.254;11.314;2023-02-21T13:04:05;3.28;;;1.60;;
20318;SDS011;10317;47.254;11.314;2023-02-21T13:12:56;1.17;;;1.10;;
20318;SDS011;10317;47.254;11.314;2023-02-21T13:15:24;5.55;;;1.23;;
20318;SDS011;10317;47.254;11.314;2023-02-21T13:20:34;1.48;;;1.38;;
20318;SDS011;10317;47.254;11.314;2023-02-21T13:29:22;1.13;;;1.10;;
20318;SDS011;10317;47.254;11.314;2023-02-21T13:34:24;1.50;;;1.10;;
20318;SDS011;10317;47.254;11.314;2023-02-21T13:36:53;1.75;;;1.63;;
20318;SDS011;10317;47.254;11.314;2023-02-21T13:39:30;1.20;;;1.10;;
20318;SDS011;10317;47.254;11.314;2023-02-21T13:42:07;3.33;;;1.55;;
20318;SDS011;10317;47.254;11.314;2023-02-21T13:44:48;1.75;;;1.25;;
20318;SDS011;10317;47.254;11.314;2023-02-21T13:47:18;2.25;;;1.08;;
20318;SDS011;10317;47.254;11.314;2023-02-21T13:49:47;3.10;;;1.30;;
20318;SDS011;10317;47.254;11.314;2023-02-21T14:08:37;2.00;;;1.20;;
20318;SDS011;10317;47.254;11.314;2023-02-21T14:19:10;3.10;;;1.20;;
20318;SDS011;10317;47.254;11.314;2023-02-21T14:22:01;2.88;;;1.20;;
20318;SDS011;10317;47.254;11.314;2023-02-21T14:24:44;1.50;;;1.17;;
20318;SDS011;10317;47.254;11.314;2023-02-21T14:37:39;1.13;;;1.00;;
20318;SDS011;10317;47.254;11.314;2023-02-21T14:45:36;1.48;;;1.27;;
20318;SDS011;10317;47.254;11.314;2023-02-21T14:48:36;4.30;;;1.10;;
20318;SDS011;10317;47.254;11.314;2023-02-21T15:10:51;1.20;;;1.20;;
20318;SDS011;10317;47.254;11.314;2023-02-21T15:13:28;1.25;;;1.25;;
20318;SDS011;10317;47.254;11.314;2023-02-21T15:16:13;2.33;;;1.23;;
20318;SDS011;10317;47.254;11.314;2023-02-21T15:18:41;5.00;;;1.38;;
20318;SDS011;10317;47.254;11.314;2023-02-21T15:21:23;2.03;;;1.58;;
20318;SDS011;10317;47.254;11.314;2023-02-21T15:23:59;2.78;;;1.92;;
20318;SDS011;10317;47.254;11.314;2023-02-21T15:26:27;4.22;;;1.20;;
20318;SDS011;10317;47.254;11.314;2023-02-21T15:29:14;4.10;;;1.33;;
20318;SDS011;10317;47.254;11.314;2023-02-21T15:31:42;3.05;;;1.83;;
20318;SDS011;10317;47.254;11.314;2023-02-21T15:34:20;1.92;;;1.70;;
20318;SDS011;10317;47.254;11.314;2023-02-21T15:36:47;3.08;;;1.77;;
20318;SDS011;10317;47.254;11.314;2023-02-21T15:39:31;3.35;;;1.60;;
20318;SDS011;10317;47.254;11.314;2023-02-21T15:41:59;5.22;;;1.70;;
20318;SDS011;10317;47.254;11.314;2023-02-21T15:44:29;7.82;;;2.05;;
20318;SDS011;10317;47.254;11.314;2023-02-21T15:49:39;2.97;;;1.60;;
20318;SDS011;10317;47.254;11.314;2023-02-21T15:52:33;1.60;;;1.50;;
20318;SDS011;10317;47.254;11.314;2023-02-21T15:58:02;2.30;;;1.63;;
20318;SDS011;10317;47.254;11.314;2023-02-21T16:00:39;4.40;;;1.73;;
20318;SDS011;10317;47.254;11.314;2023-02-21T16:09:19;6.45;;;1.92;;
20318;SDS011;10317;47.254;11.314;2023-02-21T16:12:02;1.60;;;1.50;;
20318;SDS011;10317;47.254;11.314;2023-02-21T16:17:41;1.85;;;1.33;;
20318;SDS011;10317;47.254;11.314;2023-02-21T16:22:43;3.08;;;1.73;;
20318;SDS011;10317;47.254;11.314;2023-02-21T16:25:15;8.93;;;1.85;;
20318;SDS011;10317;47.254;11.314;2023-02-21T16:27:44;4.38;;;1.50;;
20318;SDS011;10317;47.254;11.314;2023-02-21T16:30:24;3.38;;;1.63;;
20318;SDS011;10317;47.254;11.314;2023-02-21T16:32:52;2.83;;;1.77;;
20318;SDS011;10317;47.254;11.314;2023-02-21T16:35:25;1.98;;;1.40;;
20318;SDS011;10317;47.254;11.314;2023-02-21T16:37:52;3.25;;;1.40;;
20318;SDS011;10317;47.254;11.314;2023-02-21T16:40:20;3.00;;;1.50;;
20318;SDS011;10317;47.254;11.314;2023-02-21T16:42:52;5.82;;;1.98;;
20318;SDS011;10317;47.254;11.314;2023-02-21T16:45:20;3.05;;;2.10;;
20318;SDS011;10317;47.254;11.314;2023-02-21T16:47:47;1.85;;;1.75;;
20318;SDS011;10317;47.254;11.314;2023-02-21T16:50:15;3.08;;;1.63;;
20318;SDS011;10317;47.254;11.314;2023-02-21T16:53:02;3.47;;;1.80;;
20318;SDS011;10317;47.254;11.314;2023-02-21T16:55:44;5.13;;;1.90;;
20318;SDS011;10317;47.254;11.314;2023-02-21T17:00:46;3.33;;;1.95;;
20318;SDS011;10317;47.254;11.314;2023-02-21T17:03:12;3.83;;;2.22;;
20318;SDS011;10317;47.254;11.314;2023-02-21T17:05:38;6.22;;;2.17;;
20318;SDS011;10317;47.254;11.314;2023-02-21T17:08:03;3.47;;;1.75;;
20318;SDS011;10317;47.254;11.314;2023-02-21T17:10:29;3.13;;;1.90;;
20318;SDS011;10317;47.254;11.314;2023-02-21T17:12:56;2.13;;;1.92;;
20318;SDS011;10317;47.254;11.314;2023-02-21T17:15:22;2.00;;;1.80;;
20318;SDS011;10317;47.254;11.314;2023-02-21T17:17:54;2.55;;;1.88;;
20318;SDS011;10317;47.254;11.314;2023-02-21T17:20:20;1.80;;;1.63;;
20318;SDS011;10317;47.254;11.314;2023-02-21T17:22:47;5.18;;;1.90;;
20318;SDS011;10317;47.254;11.314;2023-02-21T17:25:13;1.60;;;1.50;;
20318;SDS011;10317;47.254;11.314;2023-02-21T17:27:39;1.77;;;1.67;;
20318;SDS011;10317;47.254;11.314;2023-02-21T17:30:05;4.35;;;1.65;;
20318;SDS011;10317;47.254;11.314;2023-02-21T17:32:32;4.70;;;2.10;;
20318;SDS011;10317;47.254;11.314;2023-02-21T17:34:58;4.15;;;1.77;;
20318;SDS011;10317;47.254;11.314;2023-02-21T17:37:24;2.30;;;1.80;;
20318;SDS011;10317;47.254;11.314;2023-02-21T17:39:51;2.13;;;2.03;;
20318;SDS011;10317;47.254;11.314;2023-02-21T17:42:29;5.57;;;2.00;;
20318;SDS011;10317;47.254;11.314;2023-02-21T17:44:55;4.07;;;1.98;;
20318;SDS011;10317;47.254;11.314;2023-02-21T17:47:22;4.45;;;2.00;;
20318;SDS011;10317;47.254;11.314;2023-02-21T17:49:49;4.30;;;1.92;;
20318;SDS011;10317;47.254;11.314;2023-02-21T17:52:16;3.45;;;1.85;;
20318;SDS011;10317;47.254;11.314;2023-02-21T17:54:42;2.35;;;2.15;;
20318;SDS011;10317;47.254;11.314;2023-02-21T17:57:08;4.90;;;2.83;;
20318;SDS011;10317;47.254;11.314;2023-02-21T17:59:34;2.42;;;2.20;;
20318;SDS011;10317;47.254;11.314;2023-02-21T18:02:01;2.00;;;1.90;;
20318;SDS011;10317;47.254;11.314;2023-02-21T18:04:27;3.45;;;2.08;;
20318;SDS011;10317;47.254;11.314;2023-02-21T18:06:55;3.60;;;2.25;;
20318;SDS011;10317;47.254;11.314;2023-02-21T18:09:21;3.03;;;2.25;;
20318;SDS011;10317;47.254;11.314;2023-02-21T18:11:57;2.63;;;2.42;;
20318;SDS011;10317;47.254;11.314;2023-02-21T18:14:23;2.67;;;2.47;;
20318;SDS011;10317;47.254;11.314;2023-02-21T18:16:50;4.57;;;1.88;;
20318;SDS011;10317;47.254;11.314;2023-02-21T18:19:17;2.22;;;2.03;;
20318;SDS011;10317;47.254;11.314;2023-02-21T18:21:46;4.00;;;2.17;;
20318;SDS011;10317;47.254;11.314;2023-02-21T18:24:12;3.78;;;2.20;;
20318;SDS011;10317;47.254;11.314;2023-02-21T18:26:40;2.38;;;2.15;;
20318;SDS011;10317;47.254;11.314;2023-02-21T18:29:06;3.95;;;2.45;;
20318;SDS011;10317;47.254;11.314;2023-02-21T18:31:35;2.50;;;2.25;;
20318;SDS011;10317;47.254;11.314;2023-02-21T18:34:01;2.50;;;2.30;;
20318;SDS011;10317;47.254;11.314;2023-02-21T18:36:28;4.85;;;2.22;;
20318;SDS011;10317;47.254;11.314;2023-02-21T18:38:54;3.30;;;2.75;;
20318;SDS011;10317;47.254;11.314;2023-02-21T18:41:20;3.15;;;2.42;;
20318;SDS011;10317;47.254;11.314;2023-02-21T18:43:47;2.88;;;2.20;;
20318;SDS011;10317;47.254;11.314;2023-02-21T18:46:14;6.53;;;2.50;;
20318;SDS011;10317;47.254;11.314;2023-02-21T18:48:45;2.90;;;2.58;;
20318;SDS011;10317;47.254;11.314;2023-02-21T18:51:18;2.80;;;2.05;;
20318;SDS011;10317;47.254;11.314;2023-02-21T18:53:45;3.95;;;2.42;;
20318;SDS011;10317;47.254;11.314;2023-02-21T18:56:12;4.70;;;2.33;;